sensor_id;sensor_type;location;lat;lon;timestamp;pressure;altitude;pressure_sealevel;temperature;humidity
53300;BME280;39187;48.476;8.310;2023-03-03T00:00:44;91241.91;;;1.17;100.00
53300;BME280;39187;48.476;8.310;2023-03-03T00:03:11;91236.41;;;1.26;100.00
53300;BME280;39187;48.476;8.310;2023-03-03T00:05:39;91240.03;;;1.17;100.00
53300;BME280;39187;48.476;8.310;2023-03-03T00:08:05;91247.34;;;1.05;100.00
53300;BME280;39187;48.476;8.310;2023-03-03T00:10:31;91240.75;;;0.88;100.00
53300;BME280;39187;48.476;8.310;2023-03-03T00:12:56;91241.31;;;1.01;100.00
53300;BME280;39187;48.476;8.310;2023-03-03T00:15:24;91242.84;;;1.02;100.00
53300;BME280;39187;48.476;8.310;2023-03-03T00:17:50;91238.91;;;0.89;100.00
53300;BME280;39187;48.476;8.310;2023-03-03T00:20:36;91240.09;;;0.95;100.00
53300;BME280;39187;48.476;8.310;2023-03-03T00:23:19;91242.34;;;0.96;100.00
53300;BME280;39187;48.476;8.310;2023-03-03T00:25:50;91238.41;;;1.09;100.00
53300;BME280;39187;48.476;8.310;2023-03-03T00:30:41;91251.59;;;1.13;100.00
53300;BME280;39187;48.476;8.310;2023-03-03T00:33:24;91243.22;;;1.04;100.00
53300;BME280;39187;48.476;8.310;2023-03-03T00:35:54;91251.94;;;1.11;100.00
53300;BME280;39187;48.476;8.310;2023-03-03T00:38:19;91254.66;;;1.18;100.00
53300;BME280;39187;48.476;8.310;2023-03-03T00:40:46;91249.81;;;1.20;100.00
53300;BME280;39187;48.476;8.310;2023-03-03T00:43:25;91253.22;;;1.21;100.00
53300;BME280;39187;48.476;8.310;2023-03-03T00:45:54;91250.38;;;1.33;100.00
53300;BME280;39187;48.476;8.310;2023-03-03T00:50:49;91250.94;;;1.19;100.00
53300;BME280;39187;48.476;8.310;2023-03-03T00:53:20;91250.09;;;1.15;100.00
53300;BME280;39187;48.476;8.310;2023-03-03T00:55:47;91252.78;;;0.93;100.00
53300;BME280;39187;48.476;8.310;2023-03-03T00:58:14;91256.88;;;0.90;100.00
53300;BME280;39187;48.476;8.310;2023-03-03T01:00:40;91254.63;;;0.89;100.00
53300;BME280;39187;48.476;8.310;2023-03-03T01:03:08;91258.03;;;0.93;100.00
53300;BME280;39187;48.476;8.310;2023-03-03T01:05:35;91263.28;;;0.93;100.00
53300;BME280;39187;48.476;8.310;2023-03-03T01:08:01;91253.50;;;1.16;100.00
53300;BME280;39187;48.476;8.310;2023-03-03T01:10:29;91258.19;;;1.03;100.00
53300;BME280;39187;48.476;8.310;2023-03-03T01:12:56;91251.34;;;1.22;100.00
53300;BME280;39187;48.476;8.310;2023-03-03T01:15:23;91249.22;;;1.04;100.00
53300;BME280;39187;48.476;8.310;2023-03-03T01:17:49;91248.22;;;1.12;100.00
53300;BME280;39187;48.476;8.310;2023-03-03T01:20:15;91242.97;;;0.86;100.00
53300;BME280;39187;48.476;8.310;2023-03-03T01:22:41;91242.00;;;1.24;100.00
53300;BME280;39187;48.476;8.310;2023-03-03T01:25:07;91241.91;;;1.17;100.00
53300;BME280;39187;48.476;8.310;2023-03-03T01:27:34;91242.56;;;1.10;100.00
53300;BME280;39187;48.476;8.310;2023-03-03T01:30:00;91243.69;;;0.83;100.00
53300;BME280;39187;48.476;8.310;2023-03-03T01:32:26;91243.19;;;1.00;100.00
53300;BME280;39187;48.476;8.310;2023-03-03T01:34:52;91246.94;;;0.76;100.00
53300;BME280;39187;48.476;8.310;2023-03-03T01:37:18;91238.13;;;0.88;100.00
53300;BME280;39187;48.476;8.310;2023-03-03T01:39:48;91239.78;;;1.00;100.00
53300;BME280;39187;48.476;8.310;2023-03-03T01:42:14;91247.25;;;0.98;100.00
53300;BME280;39187;48.476;8.310;2023-03-03T01:44:40;91244.47;;;1.13;100.00
53300;BME280;39187;48.476;8.310;2023-03-03T01:47:20;91242.66;;;0.91;100.00
53300;BME280;39187;48.476;8.310;2023-03-03T01:52:31;91242.00;;;0.98;100.00
53300;BME280;39187;48.476;8.310;2023-03-03T01:55:05;91237.63;;;1.05;100.00
53300;BME280;39187;48.476;8.310;2023-03-03T01:57:37;91237.97;;;0.77;100.00
53300;BME280;39187;48.476;8.310;2023-03-03T02:00:04;91236.97;;;0.86;100.00
53300;BME280;39187;48.476;8.310;2023-03-03T02:02:31;91228.16;;;0.97;100.00
53300;BME280;39187;48.476;8.310;2023-03-03T02:04:57;91229.28;;;0.70;100.00
53300;BME280;39187;48.476;8.310;2023-03-03T02:07:24;91233.34;;;0.67;100.00
53300;BME280;39187;48.476;8.310;2023-03-03T02:15:26;91220.91;;;0.87;100.00
53300;BME280;39187;48.476;8.310;2023-03-03T02:17:54;91218.22;;;0.84;100.00
53300;BME280;39187;48.476;8.310;2023-03-03T02:28:21;91220.66;;;0.69;100.00
53300;BME280;39187;48.476;8.310;2023-03-03T02:30:47;91210.22;;;0.73;100.00
53300;BME280;39187;48.476;8.310;2023-03-03T02:33:13;91216.72;;;0.83;100.00
53300;BME280;39187;48.476;8.310;2023-03-03T02:35:39;91217.84;;;0.59;100.00
53300;BME280;39187;48.476;8.310;2023-03-03T02:38:11;91213.38;;;0.59;100.00
53300;BME280;39187;48.476;8.310;2023-03-03T02:40:43;91211.94;;;0.39;100.00
53300;BME280;39187;48.476;8.310;2023-03-03T02:43:10;91222.34;;;0.58;100.00
53300;BME280;39187;48.476;8.310;2023-03-03T02:45:43;91206.69;;;0.62;100.00
53300;BME280;39187;48.476;8.310;2023-03-03T02:48:09;91213.47;;;0.66;100.00
53300;BME280;39187;48.476;8.310;2023-03-03T02:50:36;91212.41;;;0.71;100.00
53300;BME280;39187;48.476;8.310;2023-03-03T02:53:02;91211.63;;;0.67;100.00
53300;BME280;39187;48.476;8.310;2023-03-03T02:55:27;91206.50;;;0.74;100.00
53300;BME280;39187;48.476;8.310;2023-03-03T02:57:53;91204.00;;;0.58;100.00
53300;BME280;39187;48.476;8.310;2023-03-03T03:00:18;91205.28;;;0.68;100.00
53300;BME280;39187;48.476;8.310;2023-03-03T03:02:45;91205.69;;;0.70;100.00
53300;BME280;39187;48.476;8.310;2023-03-03T03:05:11;91204.88;;;0.66;100.00
53300;BME280;39187;48.476;8.310;2023-03-03T03:07:37;91200.03;;;0.68;100.00
53300;BME280;39187;48.476;8.310;2023-03-03T03:10:03;91205.72;;;0.73;100.00
53300;BME280;39187;48.476;8.310;2023-03-03T03:12:28;91200.69;;;0.61;100.00
53300;BME280;39187;48.476;8.310;2023-03-03T03:14:54;91209.88;;;0.74;100.00
53300;BME280;39187;48.476;8.310;2023-03-03T03:17:19;91211.03;;;0.51;100.00
53300;BME280;39187;48.476;8.310;2023-03-03T03:19:45;91204.09;;;0.65;100.00
53300;BME280;39187;48.476;8.310;2023-03-03T03:22:10;91211.63;;;0.67;100.00
53300;BME280;39187;48.476;8.310;2023-03-03T03:24:36;91213.34;;;0.56;100.00
53300;BME280;39187;48.476;8.310;2023-03-03T03:27:01;91213.72;;;0.58;100.00
53300;BME280;39187;48.476;8.310;2023-03-03T03:29:27;91211.84;;;0.58;100.00
53300;BME280;39187;48.476;8.310;2023-03-03T03:31:52;91215.09;;;0.48;100.00
53300;BME280;39187;48.476;8.310;2023-03-03T03:34:18;91224.88;;;0.51;100.00
53300;BME280;39187;48.476;8.310;2023-03-03T03:36:43;91220.28;;;0.45;100.00
53300;BME280;39187;48.476;8.310;2023-03-03T03:39:11;91220.50;;;0.36;100.00
53300;BME280;39187;48.476;8.310;2023-03-03T03:41:37;91218.47;;;0.49;100.00
53300;BME280;39187;48.476;8.310;2023-03-03T03:44:03;91222.75;;;0.60;100.00
53300;BME280;39187;48.476;8.310;2023-03-03T03:46:28;91218.78;;;0.70;100.00
53300;BME280;39187;48.476;8.310;2023-03-03T03:48:54;91223.19;;;0.66;100.00
53300;BME280;39187;48.476;8.310;2023-03-03T03:51:19;91218.03;;;0.69;100.00
53300;BME280;39187;48.476;8.310;2023-03-03T03:53:45;91223.06;;;0.82;100.00
53300;BME280;39187;48.476;8.310;2023-03-03T03:56:10;91218.22;;;0.84;100.00
53300;BME280;39187;48.476;8.310;2023-03-03T03:58:36;91224.25;;;0.61;100.00
53300;BME280;39187;48.476;8.310;2023-03-03T04:01:06;91213.47;;;0.66;100.00
53300;BME280;39187;48.476;8.310;2023-03-03T04:03:32;91209.41;;;0.69;100.00
53300;BME280;39187;48.476;8.310;2023-03-03T04:05:57;91218.13;;;0.76;100.00
53300;BME280;39187;48.476;8.310;2023-03-03T04:08:23;91219.03;;;0.88;100.00
53300;BME280;39187;48.476;8.310;2023-03-03T04:10:49;91224.81;;;0.74;100.00
53300;BME280;39187;48.476;8.310;2023-03-03T04:13:14;91224.47;;;0.75;100.00
53300;BME280;39187;48.476;8.310;2023-03-03T04:15:40;91227.75;;;0.69;100.00
53300;BME280;39187;48.476;8.310;2023-03-03T04:18:06;91217.50;;;0.60;100.00
53300;BME280;39187;48.476;8.310;2023-03-03T04:20:31;91230.75;;;0.45;100.00
53300;BME280;39187;48.476;8.310;2023-03-03T04:22:57;91232.19;;;0.42;100.00
53300;BME280;39187;48.476;8.310;2023-03-03T04:25:23;91232.59;;;0.44;100.00
53300;BME280;39187;48.476;8.310;2023-03-03T04:27:48;91230.78;;;0.48;100.00
53300;BME280;39187;48.476;8.310;2023-03-03T04:30:15;91232.06;;;0.35;100.00
53300;BME280;39187;48.476;8.310;2023-03-03T04:32:40;91228.22;;;0.52;100.00
53300;BME280;39187;48.476;8.310;2023-03-03T04:35:07;91228.78;;;0.64;100.00
53300;BME280;39187;48.476;8.310;2023-03-03T04:37:33;91225.50;;;0.71;100.00
53300;BME280;39187;48.476;8.310;2023-03-03T04:39:59;91219.91;;;0.69;100.00
53300;BME280;39187;48.476;8.310;2023-03-03T04:42:25;91223.06;;;0.82;100.00
53300;BME280;39187;48.476;8.310;2023-03-03T04:44:52;91219.31;;;0.56;100.00
53300;BME280;39187;48.476;8.310;2023-03-03T04:47:17;91226.53;;;0.63;100.00
53300;BME280;39187;48.476;8.310;2023-03-03T04:49:43;91225.91;;;0.47;100.00
53300;BME280;39187;48.476;8.310;2023-03-03T04:52:09;91227.88;;;0.53;100.00
53300;BME280;39187;48.476;8.310;2023-03-03T04:54:34;91234.78;;;0.65;100.00
53300;BME280;39187;48.476;8.310;2023-03-03T04:57:00;91225.03;;;0.62;100.00
53300;BME280;39187;48.476;8.310;2023-03-03T04:59:25;91232.81;;;0.58;100.00
53300;BME280;39187;48.476;8.310;2023-03-03T05:01:51;91232.56;;;0.67;100.00
53300;BME280;39187;48.476;8.310;2023-03-03T05:04:16;91234.13;;;0.71;100.00
53300;BME280;39187;48.476;8.310;2023-03-03T05:06:42;91229.66;;;0.72;100.00
53300;BME280;39187;48.476;8.310;2023-03-03T05:09:08;91236.59;;;0.61;100.00
53300;BME280;39187;48.476;8.310;2023-03-03T05:11:34;91231.31;;;0.84;100.00
53300;BME280;39187;48.476;8.310;2023-03-03T05:13:59;91236.38;;;0.69;100.00
53300;BME280;39187;48.476;8.310;2023-03-03T05:16:25;91232.13;;;0.61;100.00
53300;BME280;39187;48.476;8.310;2023-03-03T05:18:50;91232.00;;;0.54;100.00
53300;BME280;39187;48.476;8.310;2023-03-03T05:21:16;91235.72;;;0.76;100.00
53300;BME280;39187;48.476;8.310;2023-03-03T05:23:41;91233.47;;;0.78;100.00
53300;BME280;39187;48.476;8.310;2023-03-03T05:26:07;91235.06;;;0.83;100.00
53300;BME280;39187;48.476;8.310;2023-03-03T05:28:32;91234.53;;;0.73;100.00
53300;BME280;39187;48.476;8.310;2023-03-03T05:30:58;91241.72;;;0.76;100.00
53300;BME280;39187;48.476;8.310;2023-03-03T05:33:24;91244.78;;;0.82;100.00
53300;BME280;39187;48.476;8.310;2023-03-03T05:35:54;91240.66;;;0.81;100.00
53300;BME280;39187;48.476;8.310;2023-03-03T05:38:20;91240.75;;;0.88;100.00
53300;BME280;39187;48.476;8.310;2023-03-03T05:40:46;91245.78;;;1.00;100.00
53300;BME280;39187;48.476;8.310;2023-03-03T05:43:12;91233.59;;;1.11;100.00
53300;BME280;39187;48.476;8.310;2023-03-03T05:45:37;91245.94;;;1.11;100.00
53300;BME280;39187;48.476;8.310;2023-03-03T05:48:03;91243.38;;;1.14;100.00
53300;BME280;39187;48.476;8.310;2023-03-03T05:50:29;91250.06;;;1.12;100.00
53300;BME280;39187;48.476;8.310;2023-03-03T05:52:54;91249.97;;;1.05;100.00
53300;BME280;39187;48.476;8.310;2023-03-03T05:55:20;91247.69;;;1.30;100.00
53300;BME280;39187;48.476;8.310;2023-03-03T05:57:45;91254.19;;;1.39;100.00
53300;BME280;39187;48.476;8.310;2023-03-03T06:00:12;91255.97;;;1.32;100.00
53300;BME280;39187;48.476;8.310;2023-03-03T06:02:38;91247.78;;;1.37;100.00
53300;BME280;39187;48.476;8.310;2023-03-03T06:05:04;91251.66;;;1.46;100.00
53300;BME280;39187;48.476;8.310;2023-03-03T06:07:30;91251.28;;;1.48;100.00
53300;BME280;39187;48.476;8.310;2023-03-03T06:09:55;91257.03;;;1.57;100.00
53300;BME280;39187;48.476;8.310;2023-03-03T06:12:21;91257.13;;;1.64;99.69
53300;BME280;39187;48.476;8.310;2023-03-03T06:14:46;91255.97;;;1.61;100.00
53300;BME280;39187;48.476;8.310;2023-03-03T06:17:12;91262.03;;;1.69;99.75
53300;BME280;39187;48.476;8.310;2023-03-03T06:19:37;91258.53;;;1.58;99.99
53300;BME280;39187;48.476;8.310;2023-03-03T06:22:03;91267.56;;;1.60;99.66
53300;BME280;39187;48.476;8.310;2023-03-03T06:24:28;91272.53;;;1.69;99.81
53300;BME280;39187;48.476;8.310;2023-03-03T06:26:58;91274.47;;;1.72;99.56
53300;BME280;39187;48.476;8.310;2023-03-03T06:29:24;91278.13;;;1.68;99.48
53300;BME280;39187;48.476;8.310;2023-03-03T06:31:50;91279.88;;;1.56;100.00
53300;BME280;39187;48.476;8.310;2023-03-03T06:34:16;91283.59;;;1.55;99.75
53300;BME280;39187;48.476;8.310;2023-03-03T06:36:41;91289.63;;;1.56;99.80
53300;BME280;39187;48.476;8.310;2023-03-03T06:39:07;91292.03;;;1.42;100.00
53300;BME280;39187;48.476;8.310;2023-03-03T06:41:32;91286.03;;;1.41;100.00
53300;BME280;39187;48.476;8.310;2023-03-03T06:43:57;91282.72;;;1.44;100.00
53300;BME280;39187;48.476;8.310;2023-03-03T06:46:25;91290.03;;;1.58;99.95
53300;BME280;39187;48.476;8.310;2023-03-03T06:48:51;91289.16;;;1.50;100.00
53300;BME280;39187;48.476;8.310;2023-03-03T06:51:37;91294.00;;;1.48;100.00
53300;BME280;39187;48.476;8.310;2023-03-03T06:54:15;91300.66;;;1.42;100.00
53300;BME280;39187;48.476;8.310;2023-03-03T06:56:42;91293.41;;;1.32;100.00
53300;BME280;39187;48.476;8.310;2023-03-03T06:59:20;91302.97;;;1.47;100.00
53300;BME280;39187;48.476;8.310;2023-03-03T07:01:49;91298.34;;;1.64;100.00
53300;BME280;39187;48.476;8.310;2023-03-03T07:06:44;91313.00;;;1.68;99.97
53300;BME280;39187;48.476;8.310;2023-03-03T07:09:27;91306.88;;;1.57;99.63
53300;BME280;39187;48.476;8.310;2023-03-03T07:11:56;91311.41;;;1.60;100.00
53300;BME280;39187;48.476;8.310;2023-03-03T07:14:24;91320.00;;;1.60;100.00
53300;BME280;39187;48.476;8.310;2023-03-03T07:16:55;91321.38;;;1.77;98.82
53300;BME280;39187;48.476;8.310;2023-03-03T07:19:33;91318.69;;;1.74;98.90
53300;BME280;39187;48.476;8.310;2023-03-03T07:22:22;91322.50;;;1.80;98.53
53300;BME280;39187;48.476;8.310;2023-03-03T07:24:49;91328.75;;;1.68;99.26
53300;BME280;39187;48.476;8.310;2023-03-03T07:29:46;91329.94;;;1.74;99.60
53300;BME280;39187;48.476;8.310;2023-03-03T07:32:34;91334.91;;;1.53;100.00
53300;BME280;39187;48.476;8.310;2023-03-03T07:35:21;91332.88;;;1.69;99.93
53300;BME280;39187;48.476;8.310;2023-03-03T07:37:51;91332.88;;;1.69;99.31
53300;BME280;39187;48.476;8.310;2023-03-03T07:40:36;91333.00;;;1.80;98.21
53300;BME280;39187;48.476;8.310;2023-03-03T07:45:46;91336.38;;;1.80;98.34
53300;BME280;39187;48.476;8.310;2023-03-03T07:50:39;91336.34;;;1.77;97.89
53300;BME280;39187;48.476;8.310;2023-03-03T07:53:13;91340.53;;;1.81;98.22
53300;BME280;39187;48.476;8.310;2023-03-03T07:55:39;91342.81;;;1.83;97.85
53300;BME280;39187;48.476;8.310;2023-03-03T08:03:11;91350.28;;;1.81;98.40
53300;BME280;39187;48.476;8.310;2023-03-03T08:05:50;91351.31;;;1.73;98.39
53300;BME280;39187;48.476;8.310;2023-03-03T08:08:34;91358.88;;;1.78;98.13
53300;BME280;39187;48.476;8.310;2023-03-03T08:11:02;91349.59;;;1.57;98.98
53300;BME280;39187;48.476;8.310;2023-03-03T08:16:02;91354.25;;;1.97;98.33
53300;BME280;39187;48.476;8.310;2023-03-03T08:18:51;91354.22;;;2.27;96.45
53300;BME280;39187;48.476;8.310;2023-03-03T08:21:21;91354.19;;;2.24;97.17
53300;BME280;39187;48.476;8.310;2023-03-03T08:23:47;91360.47;;;2.49;96.67
53300;BME280;39187;48.476;8.310;2023-03-03T08:26:19;91368.53;;;2.33;97.76
53300;BME280;39187;48.476;8.310;2023-03-03T08:28:45;91355.25;;;2.53;96.27
53300;BME280;39187;48.476;8.310;2023-03-03T08:31:10;91355.03;;;2.68;94.81
53300;BME280;39187;48.476;8.310;2023-03-03T08:33:37;91359.47;;;2.61;95.15
53300;BME280;39187;48.476;8.310;2023-03-03T08:36:04;91356.03;;;2.57;95.38
53300;BME280;39187;48.476;8.310;2023-03-03T08:38:30;91357.97;;;2.63;94.18
53300;BME280;39187;48.476;8.310;2023-03-03T08:40:55;91365.03;;;2.56;94.33
53300;BME280;39187;48.476;8.310;2023-03-03T08:43:21;91360.34;;;2.38;94.55
53300;BME280;39187;48.476;8.310;2023-03-03T08:45:52;91361.84;;;2.76;93.54
53300;BME280;39187;48.476;8.310;2023-03-03T08:48:18;91361.44;;;2.71;93.79
53300;BME280;39187;48.476;8.310;2023-03-03T08:50:45;91359.84;;;2.63;93.00
53300;BME280;39187;48.476;8.310;2023-03-03T08:53:11;91373.47;;;2.75;93.45
53300;BME280;39187;48.476;8.310;2023-03-03T08:55:38;91369.19;;;2.97;91.80
53300;BME280;39187;48.476;8.310;2023-03-03T08:58:03;91367.47;;;3.15;90.72
53300;BME280;39187;48.476;8.310;2023-03-03T09:00:29;91368.63;;;2.77;93.36
53300;BME280;39187;48.476;8.310;2023-03-03T09:02:54;91374.47;;;2.60;93.24
53300;BME280;39187;48.476;8.310;2023-03-03T09:05:21;91368.97;;;2.72;92.18
53300;BME280;39187;48.476;8.310;2023-03-03T09:07:47;91370.72;;;2.61;92.55
53300;BME280;39187;48.476;8.310;2023-03-03T09:10:17;91372.78;;;2.78;92.85
53300;BME280;39187;48.476;8.310;2023-03-03T09:12:45;91378.22;;;2.63;93.32
53300;BME280;39187;48.476;8.310;2023-03-03T09:15:27;91378.31;;;2.70;93.51
53300;BME280;39187;48.476;8.310;2023-03-03T09:17:56;91378.22;;;2.63;94.05
53300;BME280;39187;48.476;8.310;2023-03-03T09:20:38;91377.97;;;2.71;92.22
53300;BME280;39187;48.476;8.310;2023-03-03T09:28:37;91378.09;;;2.86;92.79
53300;BME280;39187;48.476;8.310;2023-03-03T09:31:03;91378.09;;;2.49;95.55
53300;BME280;39187;48.476;8.310;2023-03-03T09:33:42;91381.44;;;2.82;93.08
53300;BME280;39187;48.476;8.310;2023-03-03T09:36:22;91386.94;;;2.70;92.95
53300;BME280;39187;48.476;8.310;2023-03-03T09:38:48;91377.38;;;2.89;92.98
53300;BME280;39187;48.476;8.310;2023-03-03T09:44:23;91383.34;;;2.86;93.27
53300;BME280;39187;48.476;8.310;2023-03-03T09:47:23;91386.25;;;3.14;91.45
53300;BME280;39187;48.476;8.310;2023-03-03T09:50:15;91389.06;;;3.35;90.92
53300;BME280;39187;48.476;8.310;2023-03-03T09:56:46;91397.31;;;3.34;89.91
53300;BME280;39187;48.476;8.310;2023-03-03T10:17:10;91410.06;;;2.88;91.22
53300;BME280;39187;48.476;8.310;2023-03-03T10:22:52;91416.13;;;3.36;89.42
53300;BME280;39187;48.476;8.310;2023-03-03T10:25:42;91414.50;;;3.68;88.39
53300;BME280;39187;48.476;8.310;2023-03-03T10:34:09;91410.63;;;3.55;88.23
53300;BME280;39187;48.476;8.310;2023-03-03T10:42:23;91415.91;;;3.55;88.90
53300;BME280;39187;48.476;8.310;2023-03-03T10:46:09;91412.06;;;3.45;88.30
53300;BME280;39187;48.476;8.310;2023-03-03T10:51:25;91419.94;;;3.93;86.18
53300;BME280;39187;48.476;8.310;2023-03-03T10:54:17;91420.31;;;3.95;86.95
53300;BME280;39187;48.476;8.310;2023-03-03T10:57:01;91423.06;;;4.16;85.33
53300;BME280;39187;48.476;8.310;2023-03-03T11:02:02;91420.56;;;4.37;85.83
53300;BME280;39187;48.476;8.310;2023-03-03T11:15:34;91424.88;;;4.01;84.72
53300;BME280;39187;48.476;8.310;2023-03-03T11:18:20;91427.44;;;3.91;85.47
53300;BME280;39187;48.476;8.310;2023-03-03T11:21:16;91419.50;;;4.53;83.20
53300;BME280;39187;48.476;8.310;2023-03-03T11:24:05;91425.94;;;4.59;83.34
53300;BME280;39187;48.476;8.310;2023-03-03T11:26:48;91424.31;;;4.33;83.34
53300;BME280;39187;48.476;8.310;2023-03-03T11:31:56;91428.59;;;4.66;81.80
53300;BME280;39187;48.476;8.310;2023-03-03T11:35:23;91424.06;;;4.59;81.19
53300;BME280;39187;48.476;8.310;2023-03-03T11:38:05;91426.00;;;4.76;80.97
53300;BME280;39187;48.476;8.310;2023-03-03T11:45:55;91412.53;;;5.10;80.79
53300;BME280;39187;48.476;8.310;2023-03-03T11:48:45;91411.69;;;4.77;80.61
53300;BME280;39187;48.476;8.310;2023-03-03T11:51:19;91411.53;;;4.42;80.51
53300;BME280;39187;48.476;8.310;2023-03-03T11:54:08;91409.84;;;4.89;80.09
53300;BME280;39187;48.476;8.310;2023-03-03T11:56:40;91407.53;;;4.76;81.65
53300;BME280;39187;48.476;8.310;2023-03-03T12:14:19;91399.00;;;5.18;76.87
53300;BME280;39187;48.476;8.310;2023-03-03T12:16:58;91394.47;;;5.30;76.81
53300;BME280;39187;48.476;8.310;2023-03-03T12:22:32;91404.66;;;5.45;74.67
53300;BME280;39187;48.476;8.310;2023-03-03T12:27:49;91406.41;;;4.70;78.64
53300;BME280;39187;48.476;8.310;2023-03-03T12:30:20;91409.75;;;4.64;80.07
53300;BME280;39187;48.476;8.310;2023-03-03T12:33:01;91410.16;;;4.66;79.59
53300;BME280;39187;48.476;8.310;2023-03-03T12:46:20;91400.84;;;5.07;77.81
53300;BME280;39187;48.476;8.310;2023-03-03T12:48:47;91404.13;;;4.65;79.56
53300;BME280;39187;48.476;8.310;2023-03-03T12:51:41;91401.34;;;4.33;81.24
53300;BME280;39187;48.476;8.310;2023-03-03T12:54:41;91399.69;;;4.91;80.03
53300;BME280;39187;48.476;8.310;2023-03-03T12:57:20;91398.53;;;4.88;77.96
53300;BME280;39187;48.476;8.310;2023-03-03T13:02:43;91390.72;;;5.23;79.13
53300;BME280;39187;48.476;8.310;2023-03-03T13:05:19;91397.09;;;5.26;76.31
53300;BME280;39187;48.476;8.310;2023-03-03T13:07:56;91394.44;;;4.98;77.31
53300;BME280;39187;48.476;8.310;2023-03-03T13:13:20;91394.09;;;5.52;75.44
53300;BME280;39187;48.476;8.310;2023-03-03T13:16:09;91383.91;;;5.51;72.23
53300;BME280;39187;48.476;8.310;2023-03-03T13:21:41;91379.75;;;5.14;73.15
53300;BME280;39187;48.476;8.310;2023-03-03T13:27:23;91388.75;;;4.85;74.38
53300;BME280;39187;48.476;8.310;2023-03-03T13:32:26;91380.50;;;5.25;71.42
53300;BME280;39187;48.476;8.310;2023-03-03T13:35:07;91382.41;;;5.39;72.90
53300;BME280;39187;48.476;8.310;2023-03-03T13:37:46;91373.34;;;5.79;71.38
53300;BME280;39187;48.476;8.310;2023-03-03T13:47:55;91367.31;;;5.64;68.92
53300;BME280;39187;48.476;8.310;2023-03-03T13:59:16;91361.97;;;6.28;66.26
53300;BME280;39187;48.476;8.310;2023-03-03T14:02:41;91369.19;;;6.21;67.08
53300;BME280;39187;48.476;8.310;2023-03-03T14:05:02;91368.72;;;6.43;65.49
53300;BME280;39187;48.476;8.310;2023-03-03T14:07:38;91361.28;;;5.99;66.72
53300;BME280;39187;48.476;8.310;2023-03-03T14:10:20;91367.31;;;5.72;70.14
53300;BME280;39187;48.476;8.310;2023-03-03T14:15:21;91371.88;;;5.92;69.35
53300;BME280;39187;48.476;8.310;2023-03-03T14:18:04;91374.88;;;6.05;68.69
53300;BME280;39187;48.476;8.310;2023-03-03T14:20:46;91369.59;;;5.98;69.60
53300;BME280;39187;48.476;8.310;2023-03-03T14:23:20;91360.13;;;5.83;70.50
53300;BME280;39187;48.476;8.310;2023-03-03T14:28:21;91366.59;;;5.43;72.59
53300;BME280;39187;48.476;8.310;2023-03-03T14:30:48;91359.41;;;5.89;71.01
53300;BME280;39187;48.476;8.310;2023-03-03T14:33:22;91359.41;;;5.89;70.91
53300;BME280;39187;48.476;8.310;2023-03-03T14:38:45;91355.22;;;6.10;70.30
53300;BME280;39187;48.476;8.310;2023-03-03T14:41:18;91359.28;;;6.35;69.68
53300;BME280;39187;48.476;8.310;2023-03-03T14:46:38;91356.72;;;6.14;69.36
53300;BME280;39187;48.476;8.310;2023-03-03T14:49:13;91355.25;;;5.67;70.79
53300;BME280;39187;48.476;8.310;2023-03-03T14:51:47;91361.63;;;6.12;69.72
53300;BME280;39187;48.476;8.310;2023-03-03T14:54:20;91353.00;;;5.62;70.86
53300;BME280;39187;48.476;8.310;2023-03-03T14:57:19;91357.16;;;5.59;69.42
53300;BME280;39187;48.476;8.310;2023-03-03T15:00:08;91360.16;;;5.51;68.65
53300;BME280;39187;48.476;8.310;2023-03-03T15:05:19;91360.56;;;5.35;69.77
53300;BME280;39187;48.476;8.310;2023-03-03T15:07:52;91352.63;;;5.53;70.11
53300;BME280;39187;48.476;8.310;2023-03-03T15:15:51;91357.53;;;5.69;70.18
53300;BME280;39187;48.476;8.310;2023-03-03T15:18:17;91359.81;;;5.31;72.09
53300;BME280;39187;48.476;8.310;2023-03-03T15:21:05;91374.13;;;5.44;72.37
53300;BME280;39187;48.476;8.310;2023-03-03T15:23:53;91357.91;;;5.21;73.06
53300;BME280;39187;48.476;8.310;2023-03-03T15:26:43;91357.91;;;5.53;71.91
53300;BME280;39187;48.476;8.310;2023-03-03T15:29:15;91363.94;;;5.21;73.10
53300;BME280;39187;48.476;8.310;2023-03-03T15:34:55;91373.66;;;4.82;75.85
53300;BME280;39187;48.476;8.310;2023-03-03T15:37:49;91370.25;;;4.81;76.94
53300;BME280;39187;48.476;8.310;2023-03-03T15:56:40;91372.97;;;5.10;76.50
53300;BME280;39187;48.476;8.310;2023-03-03T16:02:09;91376.69;;;4.91;76.40
53300;BME280;39187;48.476;8.310;2023-03-03T16:04:46;91386.53;;;5.08;76.10
53300;BME280;39187;48.476;8.310;2023-03-03T16:07:29;91376.69;;;4.88;76.45
53300;BME280;39187;48.476;8.310;2023-03-03T16:13:07;91381.63;;;4.93;76.67
53300;BME280;39187;48.476;8.310;2023-03-03T16:15:44;91387.63;;;4.90;76.24
53300;BME280;39187;48.476;8.310;2023-03-03T16:27:05;91393.88;;;4.50;77.45
53300;BME280;39187;48.476;8.310;2023-03-03T16:29:47;91393.38;;;4.23;78.64
53300;BME280;39187;48.476;8.310;2023-03-03T16:35:25;91393.81;;;4.28;78.51
53300;BME280;39187;48.476;8.310;2023-03-03T16:37:58;91400.63;;;4.40;78.25
53300;BME280;39187;48.476;8.310;2023-03-03T16:40:29;91406.63;;;4.33;77.83
53300;BME280;39187;48.476;8.310;2023-03-03T16:43:24;91408.91;;;4.35;78.37
53300;BME280;39187;48.476;8.310;2023-03-03T16:45:57;91407.78;;;4.43;77.90
53300;BME280;39187;48.476;8.310;2023-03-03T16:48:43;91413.78;;;4.33;78.49
53300;BME280;39187;48.476;8.310;2023-03-03T17:03:27;91422.63;;;4.00;79.86
53300;BME280;39187;48.476;8.310;2023-03-03T17:06:05;91428.59;;;3.97;80.22
53300;BME280;39187;48.476;8.310;2023-03-03T17:09:14;91434.44;;;3.69;80.96
53300;BME280;39187;48.476;8.310;2023-03-03T17:22:46;91444.75;;;3.44;83.61
53300;BME280;39187;48.476;8.310;2023-03-03T17:25:21;91445.31;;;3.23;84.36
53300;BME280;39187;48.476;8.310;2023-03-03T17:36:56;91468.44;;;3.07;86.73
53300;BME280;39187;48.476;8.310;2023-03-03T17:42:31;91466.13;;;2.69;88.82
53300;BME280;39187;48.476;8.310;2023-03-03T17:45:12;91467.34;;;2.75;88.44
53300;BME280;39187;48.476;8.310;2023-03-03T17:53:31;91477.97;;;2.52;89.68
53300;BME280;39187;48.476;8.310;2023-03-03T17:56:30;91483.13;;;2.45;90.53